createdAt,value
2023-02-11T00:02:47.451Z,2.69
2023-02-11T00:07:49.504Z,2.65
2023-02-11T00:12:51.140Z,2.74
2023-02-11T00:17:52.731Z,2.92
2023-02-11T00:22:54.337Z,2.95
2023-02-11T00:27:55.942Z,2.93
2023-02-11T00:32:57.730Z,2.94
2023-02-11T00:38:00.380Z,3.12
2023-02-11T00:43:01.983Z,3.22
2023-02-11T00:48:03.684Z,3.29
2023-02-11T00:53:05.318Z,3.34
2023-02-11T00:58:06.930Z,3.43
2023-02-11T01:03:08.585Z,3.41
2023-02-11T01:08:10.304Z,3.36
2023-02-11T01:13:12.261Z,3.38
2023-02-11T01:18:13.888Z,3.29
2023-02-11T01:23:16.577Z,3.43
2023-02-11T01:28:24.790Z,3.58
2023-02-11T01:33:27.096Z,3.68
2023-02-11T01:38:28.961Z,3.71
2023-02-11T01:43:41.811Z,3.92
2023-02-11T01:48:47.678Z,4.01
2023-02-11T01:54:08.888Z,4.02
2023-02-11T01:59:17.312Z,4.00
2023-02-11T02:04:20.413Z,4.05
2023-02-11T02:09:31.812Z,4.01
2023-02-11T02:14:33.550Z,4.05
2023-02-11T02:19:59.848Z,4.18
2023-02-11T02:25:29.596Z,4.16
2023-02-11T02:30:56.094Z,4.30
2023-02-11T02:36:29.957Z,4.35
2023-02-11T02:41:34.385Z,4.44
2023-02-11T02:46:36.828Z,4.41
2023-02-11T02:51:53.808Z,4.51
2023-02-11T02:57:07.502Z,4.63
2023-02-11T03:09:12.950Z,4.86
2023-02-11T03:14:17.241Z,4.81
2023-02-11T03:19:22.808Z,4.91
2023-02-11T03:24:30.693Z,4.88
2023-02-11T03:30:04.426Z,4.90
2023-02-11T03:35:12.177Z,4.92
2023-02-11T03:40:19.121Z,4.89
2023-02-11T03:45:23.771Z,4.81
2023-02-11T03:50:27.319Z,4.88
2023-02-11T03:55:31.191Z,4.95
2023-02-11T04:00:36.901Z,4.89
2023-02-11T04:05:39.087Z,4.97
2023-02-11T04:10:40.800Z,4.82
2023-02-11T04:15:42.477Z,4.86
2023-02-11T04:20:44.076Z,4.95
2023-02-11T04:25:45.703Z,5.02
2023-02-11T04:30:50.589Z,5.05
2023-02-11T04:35:52.522Z,5.08
2023-02-11T04:40:54.294Z,5.05
2023-02-11T04:45:59.381Z,5.10
2023-02-11T04:51:02.660Z,5.07
2023-02-11T04:56:04.516Z,5.03
2023-02-11T05:01:11.071Z,4.98
2023-02-11T05:06:12.808Z,4.72
2023-02-11T05:11:18.090Z,4.47
2023-02-11T05:16:19.866Z,4.47
2023-02-11T05:21:21.493Z,4.45
2023-02-11T05:26:23.113Z,4.46
2023-02-11T05:31:24.725Z,4.34
2023-02-11T05:36:26.332Z,4.41
2023-02-11T05:41:27.984Z,4.29
2023-02-11T05:46:29.675Z,4.35
2023-02-11T05:51:31.301Z,4.19
2023-02-11T05:56:33.039Z,4.23
2023-02-11T06:01:34.718Z,4.24
2023-02-11T06:06:36.609Z,4.28
2023-02-11T06:11:38.461Z,4.20
2023-02-11T06:16:40.164Z,4.23
2023-02-11T06:21:44.271Z,4.28
2023-02-11T06:26:46.179Z,4.36
2023-02-11T06:31:47.830Z,4.38
2023-02-11T06:36:49.490Z,4.46
2023-02-11T06:41:51.087Z,4.55
2023-02-11T06:46:52.771Z,4.64
2023-02-11T06:51:54.474Z,4.62
2023-02-11T06:56:56.115Z,4.64
2023-02-11T07:01:57.852Z,4.52
2023-02-11T07:06:59.487Z,4.29
2023-02-11T07:12:01.107Z,4.23
2023-02-11T07:17:04.836Z,4.19
2023-02-11T07:22:06.465Z,4.08
2023-02-11T07:27:08.129Z,4.14
2023-02-11T07:32:10.432Z,4.13
2023-02-11T07:37:12.115Z,4.09
2023-02-11T07:42:13.758Z,4.14
2023-02-11T07:47:15.697Z,4.10
2023-02-11T07:52:17.338Z,4.16
2023-02-11T07:57:18.929Z,4.18
2023-02-11T08:02:20.620Z,4.19
2023-02-11T08:07:22.376Z,4.30
2023-02-11T08:12:24.002Z,4.55
2023-02-11T08:17:25.634Z,4.66
2023-02-11T08:22:27.303Z,4.63
2023-02-11T08:27:29.035Z,4.75
2023-02-11T08:32:30.678Z,4.75
2023-02-11T08:37:33.226Z,4.68
2023-02-11T08:42:34.856Z,4.55
2023-02-11T08:47:37.174Z,4.64
2023-02-11T08:52:38.782Z,4.84
2023-02-11T08:57:40.424Z,4.84
2023-02-11T09:02:42.128Z,4.88
2023-02-11T09:07:43.785Z,5.07
2023-02-11T09:12:45.381Z,5.11
2023-02-11T09:17:46.995Z,5.17
2023-02-11T09:22:48.687Z,5.30
2023-02-11T09:27:51.451Z,5.42
2023-02-11T09:32:53.080Z,5.31
2023-02-11T09:37:54.842Z,5.27
2023-02-11T09:43:22.731Z,5.26
2023-02-11T09:48:24.394Z,5.34
2023-02-11T09:53:34.987Z,5.39
2023-02-11T09:58:39.943Z,5.56
2023-02-11T10:04:01.751Z,5.37
2023-02-11T10:09:18.494Z,5.53
2023-02-11T10:14:47.876Z,5.65
2023-02-11T10:20:08.063Z,5.83
2023-02-11T10:25:29.798Z,5.81
2023-02-11T10:30:36.262Z,5.88
2023-02-11T10:35:38.015Z,5.95
2023-02-11T10:40:39.755Z,6.09
2023-02-11T10:45:48.699Z,6.21
2023-02-11T10:50:50.646Z,6.31
2023-02-11T10:55:57.445Z,6.19
2023-02-11T11:01:00.271Z,6.27
2023-02-11T11:06:05.382Z,6.31
2023-02-11T11:11:10.688Z,6.24
2023-02-11T11:16:12.327Z,6.42
2023-02-11T11:21:18.866Z,6.32
2023-02-11T11:26:21.458Z,6.47
2023-02-11T11:31:37.699Z,6.51
2023-02-11T11:36:40.179Z,6.44
2023-02-11T11:41:51.650Z,6.54
2023-02-11T11:47:05.174Z,6.49
2023-02-11T11:52:31.644Z,6.52
2023-02-11T11:57:37.834Z,6.69
2023-02-11T12:03:05.034Z,6.57
2023-02-11T12:08:36.223Z,6.54
2023-02-11T12:13:55.737Z,6.60
2023-02-11T12:19:17.425Z,6.62
2023-02-11T12:24:37.393Z,6.51
2023-02-11T12:29:41.757Z,6.54
2023-02-11T12:35:11.460Z,6.34
2023-02-11T12:40:44.116Z,6.35
2023-02-11T12:46:26.686Z,6.42
2023-02-11T12:52:17.273Z,6.48
2023-02-11T12:57:26.550Z,6.44
2023-02-11T13:02:33.978Z,6.42
2023-02-11T13:07:41.783Z,6.41
2023-02-11T13:13:05.402Z,6.33
2023-02-11T13:18:19.197Z,6.35
2023-02-11T13:23:26.072Z,6.31
2023-02-11T13:28:42.695Z,6.27
2023-02-11T13:33:45.842Z,6.33
2023-02-11T13:38:57.927Z,6.31
2023-02-11T13:44:01.673Z,6.29
2023-02-11T13:49:03.467Z,6.37
2023-02-11T13:54:06.347Z,6.38
2023-02-11T13:59:32.998Z,6.26
2023-02-11T14:05:06.909Z,6.39
2023-02-11T14:10:42.249Z,6.45
2023-02-11T14:15:46.490Z,6.47
2023-02-11T14:20:49.152Z,6.31
2023-02-11T14:26:00.578Z,6.46
2023-02-11T14:31:12.490Z,6.45
2023-02-11T14:36:47.525Z,6.47
2023-02-11T14:41:51.176Z,6.45
2023-02-11T14:46:55.000Z,6.51
2023-02-11T14:52:03.918Z,6.38
2023-02-11T14:57:17.380Z,6.40
2023-02-11T15:02:23.991Z,6.37
2023-02-11T15:07:25.744Z,6.36
2023-02-11T15:12:28.539Z,6.38
2023-02-11T15:17:32.014Z,6.42
2023-02-11T15:22:36.958Z,6.53
2023-02-11T15:27:43.961Z,6.52
2023-02-11T15:32:45.809Z,6.60
2023-02-11T15:37:50.190Z,6.62
2023-02-11T15:43:01.706Z,6.65
2023-02-11T15:48:16.194Z,6.55
2023-02-11T15:53:20.509Z,6.50
2023-02-11T15:58:23.769Z,6.32
2023-02-11T16:03:33.096Z,6.26
2023-02-11T16:08:35.534Z,6.21
2023-02-11T16:13:46.459Z,6.12
2023-02-11T16:19:03.368Z,6.03
2023-02-11T16:24:08.236Z,6.04
2023-02-11T16:29:14.493Z,6.05
2023-02-11T16:34:20.374Z,5.99
2023-02-11T16:39:22.619Z,5.91
2023-02-11T16:44:24.301Z,5.82
2023-02-11T16:49:31.594Z,5.82
2023-02-11T16:54:33.906Z,5.80
2023-02-11T16:59:35.521Z,5.72
2023-02-11T17:04:37.203Z,5.59
2023-02-11T17:09:39.016Z,5.67
2023-02-11T17:14:40.803Z,5.72
2023-02-11T17:19:42.402Z,5.73
2023-02-11T17:24:44.031Z,5.83
2023-02-11T17:29:45.625Z,5.88
2023-02-11T17:34:47.235Z,5.95
2023-02-11T17:39:49.213Z,5.99
2023-02-11T17:44:50.875Z,6.03
2023-02-11T17:49:52.501Z,6.07
2023-02-11T17:54:55.331Z,6.17
2023-02-11T17:59:57.170Z,6.15
2023-02-11T18:04:59.011Z,6.05
2023-02-11T18:10:00.728Z,5.97
2023-02-11T18:15:02.534Z,5.92
2023-02-11T18:20:05.013Z,5.91
2023-02-11T18:25:08.207Z,5.93
2023-02-11T18:30:15.722Z,5.90
2023-02-11T18:35:17.423Z,5.96
2023-02-11T18:40:19.146Z,5.90
2023-02-11T18:45:20.918Z,5.84
2023-02-11T18:50:22.718Z,5.82
2023-02-11T18:55:25.959Z,5.82
2023-02-11T19:00:27.730Z,5.78
2023-02-11T19:05:33.337Z,5.75
2023-02-11T19:10:35.130Z,5.72
2023-02-11T19:15:41.809Z,5.74
2023-02-11T19:20:44.340Z,5.76
2023-02-11T19:25:47.526Z,5.77
2023-02-11T19:30:49.250Z,5.75
2023-02-11T19:35:51.172Z,5.81
2023-02-11T19:40:56.985Z,5.80
2023-02-11T19:45:58.681Z,5.83
2023-02-11T19:51:10.863Z,5.79
2023-02-11T19:56:15.570Z,5.78
2023-02-11T20:01:20.539Z,5.78
2023-02-11T20:06:25.296Z,5.81
2023-02-11T20:11:30.051Z,5.89
2023-02-11T20:16:46.995Z,5.95
2023-02-11T20:21:53.386Z,5.93
2023-02-11T20:26:57.820Z,5.94
2023-02-11T20:31:59.813Z,5.86
2023-02-11T20:37:04.113Z,5.88
2023-02-11T20:42:05.841Z,5.91
2023-02-11T20:47:07.468Z,5.91
2023-02-11T20:52:09.088Z,5.92
2023-02-11T20:57:10.692Z,5.97
2023-02-11T21:02:13.447Z,5.91
2023-02-11T21:07:15.099Z,5.95
2023-02-11T21:12:16.736Z,5.93
2023-02-11T21:17:18.513Z,6.00
2023-02-11T21:22:20.150Z,6.00
2023-02-11T21:27:21.962Z,5.95
2023-02-11T21:32:23.553Z,5.95
2023-02-11T21:37:25.209Z,5.96
2023-02-11T21:42:26.836Z,5.96
2023-02-11T21:47:28.478Z,5.97
2023-02-11T21:52:30.073Z,6.00
2023-02-11T21:57:31.788Z,6.02
2023-02-11T22:02:33.840Z,5.94
2023-02-11T22:07:36.499Z,5.99
2023-02-11T22:12:38.209Z,5.97
2023-02-11T22:17:39.880Z,5.91
2023-02-11T22:22:41.481Z,6.03
2023-02-11T22:27:43.329Z,6.06
2023-02-11T22:32:45.023Z,6.10
2023-02-11T22:37:46.679Z,6.16
2023-02-11T22:42:48.293Z,6.23
2023-02-11T22:47:49.892Z,6.27
2023-02-11T22:52:51.499Z,6.26
2023-02-11T22:57:53.893Z,6.28
2023-02-11T23:02:56.185Z,6.39
2023-02-11T23:07:57.891Z,6.28
2023-02-11T23:12:59.499Z,6.20
2023-02-11T23:18:01.137Z,6.32
2023-02-11T23:23:03.902Z,6.34
2023-02-11T23:28:05.529Z,6.30
2023-02-11T23:33:07.185Z,6.38
2023-02-11T23:38:08.829Z,6.36
2023-02-11T23:43:10.581Z,6.34
2023-02-11T23:48:12.193Z,6.28
2023-02-11T23:53:14.066Z,6.36
2023-02-11T23:58:15.829Z,6.34
